Aviation Digital Data Service (ADDS)

Output produced by METARs form (0958 UTC 19 January 2019)
found at http://www.aviationweather.gov/metar/data/
 
MRLB 190600Z 09019KT CAVOK 26/18 A2983 NOSIG
MRLB 190500Z 1906/2006 08020KT CAVOK TX33/1920Z TN23/1912Z 
     TEMPO 1912/1924 08020G30KT
       
MRPV 190500Z 1906/2006 08016KT 9999 FEW045 TX26/1919Z TN19/1911Z 
     TEMPO 1906/1922 09015G27KT
       
MRLM 190500Z 1906/2006 25005KT 9999 FEW025 TX30/1919Z TN19/1912Z 
     BECMG 1914/1916 06007KT 
     BECMG 2002/2004 26004KT
       
MROC 190900Z 11008KT 070V140 CAVOK 20/15 A2996 NOSIG
MROC 190500Z 1906/2006 09015KT CAVOK TX29/1919Z TN19/1911Z 
     TEMPO 1906/1920 09015G25KT